Sioux Arrow — WAG6168 — position and weather

sailwx.info

Track history (hours):
 
Tides and Currents Weather Stations Pressure Air Temp Water Temp Dewpoint Dewpoint Depression Visibility Wind Speed Wind Dir Waves Ship Positions

Sioux Arrow

Owner: HARMON, JACK L, PORT ANGELES, WA. More information available from US FCC via Universal Licensing System and Coast Guard Vessel Documentation Center.

Last reported at 2015-Jul-05 20:33 UTC. Time now 2015-Jul-05 21:06 UTC.
Position N 48°31' W 122°36'.

Type: Port tender. MMSI: 366973370.

Date/timePositionNaut miles runAvg speedWind from/ knotsBaromVisibWave heightAir tempDewpointWater temp
2015-Jul-05 20:33N 48°31' W 122°36'0 0.0
2015-Jul-05 19:33N 48°31' W 122°36'2 1.5
2015-Jul-05 18:33N 48°31' W 122°35'2 1.5
2015-Jul-05 17:33N 48°31' W 122°36'0 0.0
2015-Jul-05 16:33N 48°31' W 122°36'6 5.6
2015-Jul-05 15:33N 48°36' W 122°34'6 5.5
2015-Jul-05 14:33N 48°31' W 122°36'0 0.0
2015-Jul-05 08:33N 48°31' W 122°36'6 5.6
2015-Jul-05 07:33N 48°36' W 122°34'6 0.3
2015-Jul-04 13:33N 48°31' W 122°36'0 0.3
2015-Jul-04 12:33N 48°31' W 122°36'7 0.8
2015-Jul-04 04:32N 48°37' W 122°34'7 6.8
2015-Jul-04 03:33N 48°31' W 122°36'0 0.0
2015-Jul-04 02:33N 48°31' W 122°36'0 0.0
2015-Jul-04 01:33N 48°31' W 122°36'0 0.0
2015-Jul-04 00:33N 48°31' W 122°36'0 0.0
2015-Jul-03 23:33N 48°31' W 122°36'0 0.0
2015-Jul-03 22:34N 48°31' W 122°36'4 3.9
2015-Jul-03 21:31N 48°34' W 122°34'3 3.1
2015-Jul-03 20:34N 48°31' W 122°35'2 1.5
2015-Jul-03 19:33N 48°31' W 122°36'0 0.0
2015-Jul-03 18:33N 48°31' W 122°36'0 0.0
2015-Jul-03 17:33N 48°31' W 122°36'1 0.9
2015-Jul-03 16:33N 48°31' W 122°35'1 0.3
2015-Jul-03 13:31N 48°31' W 122°36'6 5.8
2015-Jul-03 12:33N 48°36' W 122°35'2 2.3
2015-Jul-03 11:33N 48°34' W 122°34'4 3.5
2015-Jul-03 10:33N 48°31' W 122°36'3 3.4
2015-Jul-03 09:32N 48°34' W 122°34'1 1.4
2015-Jul-03 08:33N 48°33' W 122°34'2 0.4
2015-Jul-03 04:33N 48°31' W 122°34'2 1.5
2015-Jul-03 03:21N 48°31' W 122°36'5 6.9
2015-Jul-03 02:34N 48°35' W 122°32'5 5.4
2015-Jul-03 01:34N 48°31' W 122°36'0 0.0
2015-Jul-03 00:34N 48°31' W 122°36'2 2.2
2015-Jul-02 23:34N 48°31' W 122°33'1 1.2
2015-Jul-02 22:33N 48°32' W 122°34'2 2.2
2015-Jul-02 21:33N 48°31' W 122°36'1 0.6
2015-Jul-02 20:33N 48°31' W 122°36'0 0.1
2015-Jul-02 19:33N 48°31' W 122°35'1 0.7
2015-Jul-02 18:33N 48°31' W 122°36'0 0.0
2015-Jul-02 17:33N 48°31' W 122°36'0 0.0
2015-Jul-02 16:33N 48°31' W 122°36'1 0.8
2015-Jul-02 15:33N 48°30' W 122°36'1 0.8
2015-Jul-02 14:33N 48°31' W 122°36'0 0.1
2015-Jul-02 11:33N 48°31' W 122°36'0 0.0
2015-Jul-02 06:24N 48°31' W 122°36'6 6.9
2015-Jul-02 05:33N 48°36' W 122°32'2 2.0
2015-Jul-02 04:32N 48°34' W 122°34'4 1.3
2015-Jul-02 01:32N 48°31' W 122°36'0 0.0
2015-Jul-02 00:33N 48°31' W 122°36'5 5.2
2015-Jul-01 23:33N 48°35' W 122°33'5 5.0
2015-Jul-01 22:33N 48°31' W 122°36'0 0.4
2015-Jul-01 21:33N 48°31' W 122°36'0 0.1
2015-Jul-01 20:33N 48°31' W 122°36'0 0.1
2015-Jul-01 19:33N 48°31' W 122°36'0 0.0
2015-Jul-01 18:33N 48°31' W 122°36'0 0.0
2015-Jul-01 17:33N 48°31' W 122°36'5 5.2
2015-Jul-01 16:31N 48°35' W 122°32'5 5.5
2015-Jul-01 15:33N 48°31' W 122°36'1 0.1
2015-Jul-01 03:33N 48°31' W 122°35'1 0.6
2015-Jul-01 01:28N 48°31' W 122°36'0 0.0
2015-Jul-01 00:33N 48°31' W 122°36'5 5.4
2015-Jun-30 23:33N 48°35' W 122°32'0 0.5
2015-Jun-30 22:32N 48°36' W 122°32'6 5.9
2015-Jun-30 21:33N 48°31' W 122°37'0 0.0
2015-Jun-30 20:33N 48°31' W 122°36'4 4.0
2015-Jun-30 19:33N 48°34' W 122°34'0 0.5
2015-Jun-30 18:33N 48°35' W 122°34'4 4.5
2015-Jun-30 17:33N 48°31' W 122°36'0 0.0
2015-Jun-30 16:33N 48°31' W 122°36'1 1.0
2015-Jun-30 15:33N 48°31' W 122°35'1 0.9
2015-Jun-30 14:33N 48°31' W 122°36'0 0.1
2015-Jun-30 13:33N 48°31' W 122°36'1 1.0
2015-Jun-30 12:33N 48°31' W 122°35'1 1.0
2015-Jun-30 11:33N 48°31' W 122°36'0 0.0
2015-Jun-30 05:33N 48°31' W 122°36'0 0.0
2015-Jun-30 04:33N 48°31' W 122°36'0 0.0
2015-Jun-30 03:33N 48°31' W 122°36'0 0.0
2015-Jun-30 02:33N 48°31' W 122°36'0 0.2
2015-Jun-30 01:33N 48°31' W 122°36'0 0.2
2015-Jun-30 00:33N 48°31' W 122°36'0 0.0
2015-Jun-29 17:33N 48°31' W 122°36'5 4.9
2015-Jun-29 16:33N 48°36' W 122°36'0 0.0
2015-Jun-29 15:33N 48°36' W 122°36'5 5.0
2015-Jun-29 14:33N 48°31' W 122°36'3 3.0
2015-Jun-29 13:34N 48°33' W 122°34'4 4.1
2015-Jun-29 12:33N 48°37' W 122°33'2 2.2
2015-Jun-29 11:34N 48°35' W 122°34'5 4.7
2015-Jun-29 10:33N 48°31' W 122°36'0 0.0
2015-Jun-29 03:33N 48°31' W 122°36'5 5.0
2015-Jun-29 02:33N 48°36' W 122°36'5 5.0
2015-Jun-29 01:33N 48°31' W 122°34'1 1.5
2015-Jun-29 00:33N 48°31' W 122°36'0 0.0
2015-Jun-28 23:33N 48°31' W 122°36'0 0.0
2015-Jun-28 02:03N 48°31' W 122°36'5 9.8
2015-Jun-28 01:33N 48°35' W 122°34'5 4.9
2015-Jun-28 00:33N 48°31' W 122°36'7 6.6
2015-Jun-27 23:33N 48°37' W 122°34'6 5.6
2015-Jun-27 22:33N 48°31' W 122°35'4 4.2
2015-Jun-27 21:33N 48°36' W 122°36'0 0.1
2015-Jun-27 20:33N 48°35' W 122°36'1 1.1
2015-Jun-27 19:32N 48°34' W 122°35'4 3.9
2015-Jun-27 18:33N 48°31' W 122°37'0 0.0
2015-Jun-27 17:33N 48°31' W 122°36'6 5.6
2015-Jun-27 16:33N 48°36' W 122°32'2 1.9
2015-Jun-27 15:32N 48°34' W 122°34'4 3.9
2015-Jun-27 14:33N 48°31' W 122°37'0 0.0
2015-Jun-27 03:33N 48°31' W 122°37'0 0.0
2015-Jun-27 02:33N 48°31' W 122°37'0 0.0
2015-Jun-27 01:33N 48°31' W 122°37'0 0.2
2015-Jun-27 00:34N 48°31' W 122°36'5 5.2
2015-Jun-26 23:33N 48°35' W 122°33'5 1.8
2015-Jun-26 20:33N 48°31' W 122°37'4 4.0
2015-Jun-26 19:32N 48°34' W 122°34'0 0.1
2015-Jun-26 18:58N 48°34' W 122°34'4 9.8
2015-Jun-26 18:33N 48°31' W 122°36'7 7.0
2015-Jun-26 17:34N 48°37' W 122°33'6 0.3
2015-Jun-25 21:33N 48°31' W 122°35'  
Track history (hours):
 
Tides and Currents Weather Stations Pressure Air Temp Water Temp Dewpoint Dewpoint Depression Visibility Wind Speed Wind Dir Waves Ship Positions

Sioux Arrow

Owner: HARMON, JACK L, PORT ANGELES, WA. More information available from US FCC via Universal Licensing System and Coast Guard Vessel Documentation Center.

Last reported at 2015-Jul-05 20:33 UTC. Time now 2015-Jul-05 21:06 UTC.
Position N 48°31' W 122°36'.

Type: Port tender. MMSI: 366973370.

Date/timePositionNaut miles runAvg speedWind from/ knotsBaromVisibWave heightAir tempDewpointWater temp
2015-Jul-05 20:33N 48°31' W 122°36'0 0.0
2015-Jul-05 19:33N 48°31' W 122°36'2 1.5
2015-Jul-05 18:33N 48°31' W 122°35'2 1.5
2015-Jul-05 17:33N 48°31' W 122°36'0 0.0
2015-Jul-05 16:33N 48°31' W 122°36'6 5.6
2015-Jul-05 15:33N 48°36' W 122°34'6 5.5
2015-Jul-05 14:33N 48°31' W 122°36'0 0.0
2015-Jul-05 08:33N 48°31' W 122°36'6 5.6
2015-Jul-05 07:33N 48°36' W 122°34'6 0.3
2015-Jul-04 13:33N 48°31' W 122°36'0 0.3
2015-Jul-04 12:33N 48°31' W 122°36'7 0.8
2015-Jul-04 04:32N 48°37' W 122°34'7 6.8
2015-Jul-04 03:33N 48°31' W 122°36'0 0.0
2015-Jul-04 02:33N 48°31' W 122°36'0 0.0
2015-Jul-04 01:33N 48°31' W 122°36'0 0.0
2015-Jul-04 00:33N 48°31' W 122°36'0 0.0
2015-Jul-03 23:33N 48°31' W 122°36'0 0.0
2015-Jul-03 22:34N 48°31' W 122°36'4 3.9
2015-Jul-03 21:31N 48°34' W 122°34'3 3.1
2015-Jul-03 20:34N 48°31' W 122°35'2 1.5
2015-Jul-03 19:33N 48°31' W 122°36'0 0.0
2015-Jul-03 18:33N 48°31' W 122°36'0 0.0
2015-Jul-03 17:33N 48°31' W 122°36'1 0.9
2015-Jul-03 16:33N 48°31' W 122°35'1 0.3
2015-Jul-03 13:31N 48°31' W 122°36'6 5.8
2015-Jul-03 12:33N 48°36' W 122°35'2 2.3
2015-Jul-03 11:33N 48°34' W 122°34'4 3.5
2015-Jul-03 10:33N 48°31' W 122°36'3 3.4
2015-Jul-03 09:32N 48°34' W 122°34'1 1.4
2015-Jul-03 08:33N 48°33' W 122°34'2 0.4
2015-Jul-03 04:33N 48°31' W 122°34'2 1.5
2015-Jul-03 03:21N 48°31' W 122°36'5 6.9
2015-Jul-03 02:34N 48°35' W 122°32'5 5.4
2015-Jul-03 01:34N 48°31' W 122°36'0 0.0
2015-Jul-03 00:34N 48°31' W 122°36'2 2.2
2015-Jul-02 23:34N 48°31' W 122°33'1 1.2
2015-Jul-02 22:33N 48°32' W 122°34'2 2.2
2015-Jul-02 21:33N 48°31' W 122°36'1 0.6
2015-Jul-02 20:33N 48°31' W 122°36'0 0.1
2015-Jul-02 19:33N 48°31' W 122°35'1 0.7
2015-Jul-02 18:33N 48°31' W 122°36'0 0.0
2015-Jul-02 17:33N 48°31' W 122°36'0 0.0
2015-Jul-02 16:33N 48°31' W 122°36'1 0.8
2015-Jul-02 15:33N 48°30' W 122°36'1 0.8
2015-Jul-02 14:33N 48°31' W 122°36'0 0.1
2015-Jul-02 11:33N 48°31' W 122°36'0 0.0
2015-Jul-02 06:24N 48°31' W 122°36'6 6.9
2015-Jul-02 05:33N 48°36' W 122°32'2 2.0
2015-Jul-02 04:32N 48°34' W 122°34'4 1.3
2015-Jul-02 01:32N 48°31' W 122°36'0 0.0
2015-Jul-02 00:33N 48°31' W 122°36'5 5.2
2015-Jul-01 23:33N 48°35' W 122°33'5 5.0
2015-Jul-01 22:33N 48°31' W 122°36'0 0.4
2015-Jul-01 21:33N 48°31' W 122°36'0 0.1
2015-Jul-01 20:33N 48°31' W 122°36'0 0.1
2015-Jul-01 19:33N 48°31' W 122°36'0 0.0
2015-Jul-01 18:33N 48°31' W 122°36'0 0.0
2015-Jul-01 17:33N 48°31' W 122°36'5 5.2
2015-Jul-01 16:31N 48°35' W 122°32'5 5.5
2015-Jul-01 15:33N 48°31' W 122°36'1 0.1
2015-Jul-01 03:33N 48°31' W 122°35'1 0.6
2015-Jul-01 01:28N 48°31' W 122°36'0 0.0
2015-Jul-01 00:33N 48°31' W 122°36'5 5.4
2015-Jun-30 23:33N 48°35' W 122°32'0 0.5
2015-Jun-30 22:32N 48°36' W 122°32'6 5.9
2015-Jun-30 21:33N 48°31' W 122°37'0 0.0
2015-Jun-30 20:33N 48°31' W 122°36'4 4.0
2015-Jun-30 19:33N 48°34' W 122°34'0 0.5
2015-Jun-30 18:33N 48°35' W 122°34'4 4.5
2015-Jun-30 17:33N 48°31' W 122°36'0 0.0
2015-Jun-30 16:33N 48°31' W 122°36'1 1.0
2015-Jun-30 15:33N 48°31' W 122°35'1 0.9
2015-Jun-30 14:33N 48°31' W 122°36'0 0.1
2015-Jun-30 13:33N 48°31' W 122°36'1 1.0
2015-Jun-30 12:33N 48°31' W 122°35'1 1.0
2015-Jun-30 11:33N 48°31' W 122°36'0 0.0
2015-Jun-30 05:33N 48°31' W 122°36'0 0.0
2015-Jun-30 04:33N 48°31' W 122°36'0 0.0
2015-Jun-30 03:33N 48°31' W 122°36'0 0.0
2015-Jun-30 02:33N 48°31' W 122°36'0 0.2
2015-Jun-30 01:33N 48°31' W 122°36'0 0.2
2015-Jun-30 00:33N 48°31' W 122°36'0 0.0
2015-Jun-29 17:33N 48°31' W 122°36'5 4.9
2015-Jun-29 16:33N 48°36' W 122°36'0 0.0
2015-Jun-29 15:33N 48°36' W 122°36'5 5.0
2015-Jun-29 14:33N 48°31' W 122°36'3 3.0
2015-Jun-29 13:34N 48°33' W 122°34'4 4.1
2015-Jun-29 12:33N 48°37' W 122°33'2 2.2
2015-Jun-29 11:34N 48°35' W 122°34'5 4.7
2015-Jun-29 10:33N 48°31' W 122°36'0 0.0
2015-Jun-29 03:33N 48°31' W 122°36'5 5.0
2015-Jun-29 02:33N 48°36' W 122°36'5 5.0
2015-Jun-29 01:33N 48°31' W 122°34'1 1.5
2015-Jun-29 00:33N 48°31' W 122°36'0 0.0
2015-Jun-28 23:33N 48°31' W 122°36'0 0.0
2015-Jun-28 02:03N 48°31' W 122°36'5 9.8
2015-Jun-28 01:33N 48°35' W 122°34'5 4.9
2015-Jun-28 00:33N 48°31' W 122°36'7 6.6
2015-Jun-27 23:33N 48°37' W 122°34'6 5.6
2015-Jun-27 22:33N 48°31' W 122°35'4 4.2
2015-Jun-27 21:33N 48°36' W 122°36'0 0.1
2015-Jun-27 20:33N 48°35' W 122°36'1 1.1
2015-Jun-27 19:32N 48°34' W 122°35'4 3.9
2015-Jun-27 18:33N 48°31' W 122°37'0 0.0
2015-Jun-27 17:33N 48°31' W 122°36'6 5.6
2015-Jun-27 16:33N 48°36' W 122°32'2 1.9
2015-Jun-27 15:32N 48°34' W 122°34'4 3.9
2015-Jun-27 14:33N 48°31' W 122°37'0 0.0
2015-Jun-27 03:33N 48°31' W 122°37'0 0.0
2015-Jun-27 02:33N 48°31' W 122°37'0 0.0
2015-Jun-27 01:33N 48°31' W 122°37'0 0.2
2015-Jun-27 00:34N 48°31' W 122°36'5 5.2
2015-Jun-26 23:33N 48°35' W 122°33'5 1.8
2015-Jun-26 20:33N 48°31' W 122°37'4 4.0
2015-Jun-26 19:32N 48°34' W 122°34'0 0.1
2015-Jun-26 18:58N 48°34' W 122°34'4 9.8
2015-Jun-26 18:33N 48°31' W 122°36'7 7.0
2015-Jun-26 17:34N 48°37' W 122°33'6 0.3
2015-Jun-25 21:33N 48°31' W 122°35'  

Dump ship's entire track history